Terminal Aerodrome Forecast
Issued by NWS

Current Version | Previous Version | Text Only | Print | Product List | Glossary On
Versions: 1 2 3 4 5 6 7 8 9 10 11 12 13 14 15 16 17 18
000
FTUS45 KFGZ 312300
TAFPGA
TAF
KPGA 312327Z 0100/0124 VRB05KT P6SM FEW035 SCT110 SCT150
     FM010800 VRB03KT P6SM VCFG BKN005
      TEMPO 0109/0113 1SM BR OVC003
     FM011800 VRB05KT P6SM SCT010=

USA.gov is the U.S. government's official web portal to all federal, state and local government web resources and services.